createdAt,value
2019-02-16T00:02:23.058Z,22.10
2019-02-16T00:04:50.123Z,22.20
2019-02-16T00:07:17.168Z,22.10
2019-02-16T00:09:44.262Z,22.20
2019-02-16T00:12:11.347Z,22.20
2019-02-16T00:14:38.546Z,22.10
2019-02-16T00:17:05.602Z,22.20
2019-02-16T00:19:32.697Z,22.20
2019-02-16T00:21:59.755Z,22.20
2019-02-16T00:24:26.933Z,22.10
2019-02-16T00:26:54.023Z,22.20
2019-02-16T00:29:21.124Z,22.10
2019-02-16T00:31:48.183Z,22.10
2019-02-16T00:34:15.330Z,22.10
2019-02-16T00:36:42.389Z,22.20
2019-02-16T00:39:09.439Z,22.10
2019-02-16T00:41:36.530Z,22.10
2019-02-16T00:44:03.723Z,22.10
2019-02-16T00:46:30.815Z,22.10
2019-02-16T00:48:57.879Z,22.10
2019-02-16T00:51:24.982Z,22.10
2019-02-16T00:53:52.036Z,22.10
2019-02-16T00:56:19.096Z,22.10
2019-02-16T00:58:46.225Z,22.20
2019-02-16T01:01:13.306Z,22.10
2019-02-16T01:03:40.533Z,22.10
2019-02-16T01:06:07.577Z,22.10
2019-02-16T01:08:34.656Z,22.10
2019-02-16T01:11:01.716Z,22.10
2019-02-16T01:13:28.776Z,22.10
2019-02-16T01:15:55.966Z,22.10
2019-02-16T01:18:23.027Z,22.10
2019-02-16T01:20:50.114Z,22.10
2019-02-16T01:23:17.161Z,22.10
2019-02-16T01:25:44.365Z,22.10
2019-02-16T01:28:11.424Z,22.10
2019-02-16T01:30:38.505Z,22.10
2019-02-16T01:33:05.569Z,22.10
2019-02-16T01:35:32.748Z,22.10
2019-02-16T01:37:59.810Z,22.10
2019-02-16T01:40:26.904Z,22.10
2019-02-16T01:42:53.991Z,22.10
2019-02-16T01:45:21.082Z,22.10
2019-02-16T01:47:48.162Z,22.10
2019-02-16T01:50:15.221Z,22.10
2019-02-16T01:52:42.306Z,22.10
2019-02-16T01:55:09.358Z,22.10
2019-02-16T01:57:36.609Z,22.10
2019-02-16T02:00:03.695Z,22.10
2019-02-16T02:02:30.845Z,22.10
2019-02-16T02:04:57.949Z,22.10
2019-02-16T02:07:25.043Z,22.10
2019-02-16T02:09:52.109Z,22.10
2019-02-16T02:12:19.373Z,22.10
2019-02-16T02:14:46.465Z,22.00
2019-02-16T02:17:13.591Z,22.00
2019-02-16T02:19:40.738Z,22.00
2019-02-16T02:22:07.794Z,22.00
2019-02-16T02:24:34.855Z,22.00
2019-02-16T02:27:01.987Z,22.00
2019-02-16T02:29:29.066Z,22.00
2019-02-16T02:31:56.129Z,22.10
2019-02-16T02:34:23.336Z,22.00
2019-02-16T02:36:50.387Z,22.00
2019-02-16T02:39:17.483Z,22.00
2019-02-16T02:41:44.588Z,22.00
2019-02-16T02:44:11.928Z,22.00
2019-02-16T02:46:38.983Z,22.00
2019-02-16T02:49:06.077Z,22.00
2019-02-16T02:51:33.137Z,22.00
2019-02-16T02:54:00.321Z,22.00
2019-02-16T02:56:27.382Z,22.00
2019-02-16T02:58:54.476Z,22.00
2019-02-16T03:01:21.560Z,22.00
2019-02-16T03:03:48.622Z,22.00
2019-02-16T03:06:15.719Z,22.00
2019-02-16T03:08:42.804Z,22.00
2019-02-16T03:11:09.904Z,22.00
2019-02-16T03:13:37.120Z,22.00
2019-02-16T03:16:04.174Z,22.00
2019-02-16T03:18:31.226Z,22.00
2019-02-16T03:20:58.467Z,22.00
2019-02-16T03:23:25.527Z,22.00
2019-02-16T03:25:52.763Z,22.00
2019-02-16T03:28:19.830Z,22.00
2019-02-16T03:30:46.915Z,22.00
2019-02-16T03:33:13.985Z,22.00
2019-02-16T03:35:41.181Z,22.00
2019-02-16T03:38:08.248Z,22.00
2019-02-16T03:40:35.311Z,22.00
2019-02-16T03:43:02.389Z,22.00
2019-02-16T03:45:29.479Z,22.00
2019-02-16T03:47:56.538Z,22.00
2019-02-16T03:50:23.622Z,22.00
2019-02-16T03:52:50.688Z,22.00
2019-02-16T03:55:17.955Z,22.00
2019-02-16T03:57:45.043Z,22.00
2019-02-16T04:00:12.147Z,22.00
2019-02-16T04:02:39.202Z,21.90
2019-02-16T04:05:06.558Z,22.00
2019-02-16T04:07:33.625Z,21.90
2019-02-16T04:10:00.706Z,22.00
2019-02-16T04:12:27.798Z,21.90
2019-02-16T04:14:54.857Z,21.90
2019-02-16T04:17:22.003Z,21.90
2019-02-16T04:19:49.052Z,22.00
2019-02-16T04:22:24.190Z,21.90
2019-02-16T04:24:44.987Z,21.90
2019-02-16T04:27:12.042Z,21.90
2019-02-16T04:29:39.100Z,21.90
2019-02-16T04:32:06.196Z,21.90
2019-02-16T04:34:33.241Z,21.90
2019-02-16T04:37:00.424Z,21.90
2019-02-16T04:39:27.483Z,21.90
2019-02-16T04:41:54.567Z,21.90
2019-02-16T04:44:21.625Z,21.90
2019-02-16T04:46:48.694Z,21.90
2019-02-16T04:49:15.873Z,21.90
2019-02-16T04:51:43.008Z,21.90
2019-02-16T04:54:10.058Z,21.90
2019-02-16T04:56:37.223Z,21.90
2019-02-16T04:59:04.282Z,21.90
2019-02-16T05:01:31.438Z,21.90
2019-02-16T05:03:58.500Z,21.90
2019-02-16T05:06:25.585Z,21.90
2019-02-16T05:08:52.635Z,21.90
2019-02-16T05:11:19.735Z,21.90
2019-02-16T05:13:47.106Z,21.90
2019-02-16T05:16:14.423Z,21.90
2019-02-16T05:18:41.548Z,21.90
2019-02-16T05:21:08.594Z,21.90
2019-02-16T05:23:35.773Z,21.90
2019-02-16T05:26:02.824Z,21.90
2019-02-16T05:28:29.913Z,21.90
2019-02-16T05:30:56.967Z,21.90
2019-02-16T05:33:24.177Z,21.90
2019-02-16T05:35:51.291Z,21.90
2019-02-16T05:38:18.381Z,21.90
2019-02-16T05:40:45.447Z,21.90
2019-02-16T05:43:12.568Z,21.90
2019-02-16T05:45:39.632Z,21.90
2019-02-16T05:48:06.772Z,21.90
2019-02-16T05:50:33.893Z,21.90
2019-02-16T05:53:01.059Z,21.90
2019-02-16T05:55:28.222Z,21.90
2019-02-16T05:57:55.374Z,21.90
2019-02-16T06:00:22.463Z,21.90
2019-02-16T06:02:49.573Z,21.90
2019-02-16T06:05:16.768Z,21.90
2019-02-16T06:07:43.847Z,21.90
2019-02-16T06:10:10.944Z,21.80
2019-02-16T06:12:38.054Z,21.90
2019-02-16T06:15:05.198Z,21.90
2019-02-16T06:17:32.483Z,21.80
2019-02-16T06:19:59.594Z,21.80
2019-02-16T06:22:26.663Z,21.80
2019-02-16T06:24:53.825Z,21.80
2019-02-16T06:27:20.939Z,21.80
2019-02-16T06:29:48.070Z,21.80
2019-02-16T06:32:15.571Z,21.80
2019-02-16T06:34:42.675Z,21.80
2019-02-16T06:37:09.876Z,21.80
2019-02-16T06:39:36.949Z,21.80
2019-02-16T06:42:04.109Z,21.80
2019-02-16T06:44:31.158Z,21.80
2019-02-16T06:46:58.273Z,21.80
2019-02-16T06:49:25.354Z,21.80
2019-02-16T06:51:52.418Z,21.80
2019-02-16T06:54:19.597Z,21.80
2019-02-16T06:56:46.868Z,21.80
2019-02-16T06:59:13.936Z,21.80
2019-02-16T07:01:41.018Z,21.80
2019-02-16T07:04:08.099Z,21.80
2019-02-16T07:06:35.247Z,21.80
2019-02-16T07:09:02.384Z,21.90
2019-02-16T07:11:29.507Z,21.90
2019-02-16T07:13:56.649Z,21.90
2019-02-16T07:16:23.726Z,22.00
2019-02-16T07:18:50.859Z,22.00
2019-02-16T07:21:17.960Z,22.10
2019-02-16T07:23:45.086Z,22.20
2019-02-16T07:26:12.269Z,22.20
2019-02-16T07:28:39.411Z,22.30
2019-02-16T07:31:06.507Z,22.40
2019-02-16T07:33:33.644Z,22.30
2019-02-16T07:36:00.718Z,22.40
2019-02-16T07:38:27.871Z,22.50
2019-02-16T07:40:55.119Z,22.60
2019-02-16T07:43:22.284Z,22.60
2019-02-16T07:45:49.345Z,22.70
2019-02-16T07:48:16.531Z,22.80
2019-02-16T07:50:43.618Z,22.80
2019-02-16T07:53:10.840Z,22.80
2019-02-16T07:55:37.984Z,22.80
2019-02-16T07:58:05.079Z,22.80
2019-02-16T08:00:32.183Z,22.70
2019-02-16T08:02:59.258Z,22.70
2019-02-16T08:05:26.486Z,22.60
2019-02-16T08:07:54.405Z,22.60
2019-02-16T08:10:21.571Z,22.60
2019-02-16T08:12:48.708Z,22.50
2019-02-16T08:15:15.872Z,22.50
2019-02-16T08:17:43.017Z,22.50
2019-02-16T08:20:10.197Z,22.40
2019-02-16T08:22:37.322Z,22.40
2019-02-16T08:25:04.511Z,22.40
2019-02-16T08:27:31.637Z,22.40
2019-02-16T08:29:58.775Z,22.40
2019-02-16T08:32:25.863Z,22.40
2019-02-16T08:34:53.105Z,22.40
2019-02-16T08:37:20.272Z,22.30
2019-02-16T08:39:47.402Z,22.30
2019-02-16T08:42:14.475Z,22.30
2019-02-16T08:44:41.727Z,22.30
2019-02-16T08:47:08.872Z,22.30
2019-02-16T08:49:36.000Z,22.30
2019-02-16T08:52:03.383Z,22.30
2019-02-16T08:54:30.693Z,22.30
2019-02-16T08:56:57.930Z,22.30
2019-02-16T08:59:25.157Z,22.20
2019-02-16T09:01:52.221Z,22.20
2019-02-16T09:04:19.485Z,22.30
2019-02-16T09:06:46.579Z,22.20
2019-02-16T09:09:13.697Z,22.20
2019-02-16T09:11:40.842Z,22.20
2019-02-16T09:14:08.004Z,22.20
2019-02-16T09:16:37.869Z,22.20
2019-02-16T09:19:05.259Z,22.20
2019-02-16T09:21:32.716Z,22.20
2019-02-16T09:23:59.829Z,22.20
2019-02-16T09:26:27.102Z,22.10
2019-02-16T09:28:54.275Z,22.10
2019-02-16T09:31:21.361Z,22.20
2019-02-16T09:33:51.115Z,22.10
2019-02-16T09:36:18.186Z,22.20
2019-02-16T09:38:45.316Z,22.20
2019-02-16T09:41:12.440Z,22.20
2019-02-16T09:43:39.662Z,22.30
2019-02-16T09:46:06.740Z,22.20
2019-02-16T09:48:33.803Z,22.20
2019-02-16T09:51:00.984Z,22.20
2019-02-16T09:53:28.091Z,22.20
2019-02-16T09:55:55.297Z,22.30
2019-02-16T09:58:22.421Z,22.30
2019-02-16T10:00:49.514Z,22.40
2019-02-16T10:03:16.617Z,22.40
2019-02-16T10:05:43.922Z,22.40
2019-02-16T10:08:11.135Z,22.50
2019-02-16T10:10:38.226Z,22.50
2019-02-16T10:13:05.314Z,22.50
2019-02-16T10:15:32.601Z,22.60
2019-02-16T10:17:59.760Z,22.60
2019-02-16T10:20:26.829Z,22.60
2019-02-16T10:22:53.940Z,22.60
2019-02-16T10:25:21.048Z,22.60
2019-02-16T10:27:48.165Z,22.60
2019-02-16T10:30:15.301Z,22.60
2019-02-16T10:32:42.398Z,22.70
2019-02-16T10:35:09.728Z,22.70
2019-02-16T10:37:36.821Z,22.70
2019-02-16T10:40:03.942Z,22.70
2019-02-16T10:42:31.045Z,22.70
2019-02-16T10:44:58.280Z,22.70
2019-02-16T10:47:25.675Z,22.70
2019-02-16T10:49:52.771Z,22.70
2019-02-16T10:52:20.002Z,22.70
2019-02-16T10:54:47.320Z,22.80
2019-02-16T10:57:14.421Z,22.80
2019-02-16T10:59:41.506Z,22.70
2019-02-16T11:02:08.567Z,22.70
2019-02-16T11:04:38.218Z,22.70
2019-02-16T11:07:04.441Z,22.70
2019-02-16T11:09:31.530Z,22.70
2019-02-16T11:11:58.602Z,22.70
2019-02-16T11:14:25.691Z,22.70
2019-02-16T11:16:53.663Z,22.70
2019-02-16T11:19:20.916Z,22.70
2019-02-16T11:21:48.009Z,22.70
2019-02-16T11:24:15.074Z,22.70
2019-02-16T11:26:42.195Z,22.70
2019-02-16T11:29:11.094Z,22.70
2019-02-16T11:31:38.106Z,22.70
2019-02-16T11:34:05.253Z,22.70
2019-02-16T11:36:32.407Z,22.70
2019-02-16T11:38:59.469Z,22.70
2019-02-16T11:41:26.631Z,22.70
2019-02-16T11:43:53.765Z,22.80
2019-02-16T11:46:20.822Z,22.90
2019-02-16T11:48:47.901Z,22.90
2019-02-16T11:51:15.758Z,22.80
2019-02-16T11:53:43.130Z,22.80
2019-02-16T11:56:10.230Z,22.70
2019-02-16T11:58:37.295Z,22.70
2019-02-16T12:01:04.387Z,22.70
2019-02-16T12:03:31.441Z,22.70
2019-02-16T12:05:58.622Z,22.70
2019-02-16T12:08:25.813Z,22.70
2019-02-16T12:10:53.099Z,22.70
2019-02-16T12:13:20.379Z,22.70
2019-02-16T12:15:47.571Z,22.70
2019-02-16T12:18:14.634Z,22.60
2019-02-16T12:20:41.737Z,22.60
2019-02-16T12:23:08.814Z,22.60
2019-02-16T12:25:35.869Z,22.70
2019-02-16T12:28:03.225Z,22.60
2019-02-16T12:30:30.282Z,22.70
2019-02-16T12:32:57.379Z,22.60
2019-02-16T12:35:24.636Z,22.60
2019-02-16T12:37:51.724Z,22.60
2019-02-16T12:40:18.777Z,22.60
2019-02-16T12:42:45.884Z,22.60
2019-02-16T12:45:13.031Z,22.60
2019-02-16T12:47:40.190Z,22.60
2019-02-16T12:50:07.280Z,22.60
2019-02-16T12:52:34.525Z,22.60
2019-02-16T12:55:01.770Z,22.60
2019-02-16T12:57:29.012Z,22.60
2019-02-16T12:59:56.134Z,22.60
2019-02-16T13:02:24.744Z,22.60
2019-02-16T13:04:52.066Z,22.60
2019-02-16T13:07:19.168Z,22.60
2019-02-16T13:09:46.339Z,22.60
2019-02-16T13:12:13.507Z,22.60
2019-02-16T13:14:40.564Z,22.60
2019-02-16T13:17:07.919Z,22.60
2019-02-16T13:19:34.969Z,22.60
2019-02-16T13:22:02.058Z,22.60
2019-02-16T13:24:29.127Z,22.60
2019-02-16T13:26:56.224Z,22.60
2019-02-16T13:29:23.294Z,22.60
2019-02-16T13:31:50.388Z,22.60
2019-02-16T13:34:17.446Z,22.60
2019-02-16T13:36:44.720Z,22.60
2019-02-16T13:39:11.783Z,22.60
2019-02-16T13:41:38.843Z,22.60
2019-02-16T13:44:05.933Z,22.60
2019-02-16T13:46:33.022Z,22.60
2019-02-16T13:49:00.128Z,22.60
2019-02-16T13:51:27.184Z,22.50
2019-02-16T13:53:54.275Z,22.50
2019-02-16T13:56:21.367Z,22.50
2019-02-16T13:58:48.437Z,22.50
2019-02-16T14:01:15.533Z,22.50
2019-02-16T14:03:42.653Z,22.50
2019-02-16T14:06:09.761Z,22.50
2019-02-16T14:08:36.879Z,22.50
2019-02-16T14:11:03.976Z,22.60
2019-02-16T14:13:31.247Z,22.50
2019-02-16T14:15:58.497Z,22.60
2019-02-16T14:18:25.586Z,22.60
2019-02-16T14:20:52.675Z,22.50
2019-02-16T14:23:19.740Z,22.50
2019-02-16T14:25:46.909Z,22.50
2019-02-16T14:28:13.965Z,22.50
2019-02-16T14:30:41.022Z,22.50
2019-02-16T14:33:08.242Z,22.50
2019-02-16T14:35:35.475Z,22.50
2019-02-16T14:38:02.565Z,22.50
2019-02-16T14:40:29.679Z,22.50
2019-02-16T14:42:56.749Z,22.50
2019-02-16T14:45:23.810Z,22.50
2019-02-16T14:47:51.859Z,22.50
2019-02-16T14:50:18.983Z,22.50
2019-02-16T14:52:46.101Z,22.50
2019-02-16T14:55:13.156Z,22.50
2019-02-16T14:57:40.259Z,22.50
2019-02-16T15:00:07.352Z,22.40
2019-02-16T15:02:34.480Z,22.40
2019-02-16T15:05:01.531Z,22.50
2019-02-16T15:07:28.594Z,22.40
2019-02-16T15:09:55.835Z,22.40
2019-02-16T15:12:22.953Z,22.50
2019-02-16T15:14:50.010Z,22.40
2019-02-16T15:17:18.794Z,22.40
2019-02-16T15:19:45.989Z,22.40
2019-02-16T15:22:13.287Z,22.40
2019-02-16T15:24:40.347Z,22.40
2019-02-16T15:27:07.604Z,22.40
2019-02-16T15:29:34.686Z,22.40
2019-02-16T15:32:01.739Z,22.40
2019-02-16T15:34:28.949Z,22.40
2019-02-16T15:36:56.008Z,22.40
2019-02-16T15:39:23.120Z,22.40
2019-02-16T15:41:50.195Z,22.40
2019-02-16T15:44:17.388Z,22.40
2019-02-16T15:46:44.506Z,22.40
2019-02-16T15:49:11.593Z,22.40
2019-02-16T15:51:38.651Z,22.40
2019-02-16T15:54:05.743Z,22.40
2019-02-16T15:56:32.882Z,22.40
2019-02-16T15:59:00.104Z,22.40
2019-02-16T16:01:27.269Z,22.40
2019-02-16T16:03:54.555Z,22.40
2019-02-16T16:06:21.639Z,22.40
2019-02-16T16:08:48.732Z,22.40
2019-02-16T16:11:15.837Z,22.40
2019-02-16T16:13:42.901Z,22.30
2019-02-16T16:16:09.979Z,22.30
2019-02-16T16:18:37.082Z,22.30
2019-02-16T16:21:04.158Z,22.30
2019-02-16T16:23:31.264Z,22.30
2019-02-16T16:25:58.399Z,22.40
2019-02-16T16:28:25.475Z,22.40
2019-02-16T16:30:52.563Z,22.30
2019-02-16T16:33:19.723Z,22.40
2019-02-16T16:35:46.796Z,22.40
2019-02-16T16:38:13.892Z,22.40
2019-02-16T16:40:40.972Z,22.40
2019-02-16T16:43:08.117Z,22.40
2019-02-16T16:45:35.211Z,22.40
2019-02-16T16:48:02.269Z,22.40
2019-02-16T16:50:29.362Z,22.40
2019-02-16T16:52:56.417Z,22.40
2019-02-16T16:55:23.489Z,22.40
2019-02-16T16:57:50.639Z,22.40
2019-02-16T17:00:17.759Z,22.40
2019-02-16T17:02:44.818Z,22.40
2019-02-16T17:05:11.967Z,22.40
2019-02-16T17:07:39.026Z,22.40
2019-02-16T17:10:06.113Z,22.40
2019-02-16T17:12:34.970Z,22.40
2019-02-16T17:15:02.231Z,22.40
2019-02-16T17:17:30.325Z,22.40
2019-02-16T17:19:57.369Z,22.40
2019-02-16T17:22:24.622Z,22.40
2019-02-16T17:24:51.835Z,22.40
2019-02-16T17:27:19.059Z,22.40
2019-02-16T17:29:46.220Z,22.40
2019-02-16T17:32:13.268Z,22.40
2019-02-16T17:34:40.719Z,22.40
2019-02-16T17:37:07.794Z,22.40
2019-02-16T17:39:34.878Z,22.40
2019-02-16T17:42:02.338Z,22.30
2019-02-16T17:44:29.391Z,22.40
2019-02-16T17:46:56.723Z,22.40
2019-02-16T17:49:23.805Z,22.40
2019-02-16T17:51:50.894Z,22.40
2019-02-16T17:54:17.953Z,22.40
2019-02-16T17:56:46.986Z,22.40
2019-02-16T17:59:13.981Z,22.40
2019-02-16T18:01:41.339Z,22.40
2019-02-16T18:04:08.746Z,22.40
2019-02-16T18:06:35.828Z,22.40
2019-02-16T18:09:02.978Z,22.30
2019-02-16T18:11:30.430Z,22.40
2019-02-16T18:13:57.692Z,22.40
2019-02-16T18:16:24.786Z,22.30
2019-02-16T18:18:53.515Z,22.30
2019-02-16T18:21:20.730Z,22.30
2019-02-16T18:23:47.929Z,22.30
2019-02-16T18:26:15.424Z,22.40
2019-02-16T18:28:42.539Z,22.30
2019-02-16T18:31:10.079Z,22.40
2019-02-16T18:33:37.287Z,22.30
2019-02-16T18:36:04.400Z,22.30
2019-02-16T18:38:31.474Z,22.30
2019-02-16T18:40:58.617Z,22.30
2019-02-16T18:43:26.312Z,22.30
2019-02-16T18:45:53.768Z,22.30
2019-02-16T18:48:21.596Z,22.30
2019-02-16T18:50:49.984Z,22.30
2019-02-16T18:53:17.358Z,22.30
2019-02-16T18:55:46.165Z,22.30
2019-02-16T18:58:13.272Z,22.30
2019-02-16T19:00:40.623Z,22.30
2019-02-16T19:03:07.746Z,22.30
2019-02-16T19:05:34.866Z,22.30
2019-02-16T19:08:02.295Z,22.30
2019-02-16T19:10:29.429Z,22.30
2019-02-16T19:12:57.523Z,22.30
2019-02-16T19:15:25.908Z,22.30
2019-02-16T19:17:52.987Z,22.30
2019-02-16T19:20:20.051Z,22.30
2019-02-16T19:22:47.267Z,22.30
2019-02-16T19:25:14.563Z,22.30
2019-02-16T19:27:41.825Z,22.20
2019-02-16T19:30:08.888Z,22.20
2019-02-16T19:32:36.036Z,22.20
2019-02-16T19:35:03.187Z,22.20
2019-02-16T19:37:30.243Z,22.20
2019-02-16T19:39:57.335Z,22.30
2019-02-16T19:42:26.753Z,22.20
2019-02-16T19:44:54.021Z,22.20
2019-02-16T19:47:21.861Z,22.20
2019-02-16T19:49:48.895Z,22.20
2019-02-16T19:52:15.989Z,22.20
2019-02-16T19:54:44.219Z,22.20
2019-02-16T19:57:11.805Z,22.20
2019-02-16T19:59:38.990Z,22.30
2019-02-16T20:02:06.075Z,22.30
2019-02-16T20:04:33.192Z,22.30
2019-02-16T20:07:00.347Z,22.30
2019-02-16T20:09:27.505Z,22.30
2019-02-16T20:11:54.634Z,22.30
2019-02-16T20:14:21.963Z,22.30
2019-02-16T20:16:49.014Z,22.30
2019-02-16T20:19:16.098Z,22.30
2019-02-16T20:21:43.331Z,22.30
2019-02-16T20:24:10.396Z,22.30
2019-02-16T20:26:37.761Z,22.30
2019-02-16T20:29:04.906Z,22.30
2019-02-16T20:31:32.054Z,22.30
2019-02-16T20:33:59.211Z,22.30
2019-02-16T20:36:26.354Z,22.40
2019-02-16T20:38:53.579Z,22.40
2019-02-16T20:41:20.682Z,22.40
2019-02-16T20:43:47.923Z,22.40
2019-02-16T20:46:15.052Z,22.40
2019-02-16T20:48:42.133Z,22.40
2019-02-16T20:51:09.246Z,22.40
2019-02-16T20:53:36.561Z,22.40
2019-02-16T20:56:03.666Z,22.40
2019-02-16T20:58:30.767Z,22.40
2019-02-16T21:00:57.848Z,22.40
2019-02-16T21:03:24.914Z,22.40
2019-02-16T21:05:52.132Z,22.40
2019-02-16T21:08:19.258Z,22.40
2019-02-16T21:10:46.338Z,22.40
2019-02-16T21:13:13.615Z,22.40
2019-02-16T21:15:40.816Z,22.40
2019-02-16T21:18:07.973Z,22.40
2019-02-16T21:20:35.097Z,22.40
2019-02-16T21:23:02.263Z,22.40
2019-02-16T21:25:29.384Z,22.40
2019-02-16T21:27:58.173Z,22.40
2019-02-16T21:30:25.268Z,22.40
2019-02-16T21:32:52.365Z,22.40
2019-02-16T21:35:19.467Z,22.40
2019-02-16T21:37:46.547Z,22.40
2019-02-16T21:40:13.633Z,22.40
2019-02-16T21:42:40.784Z,22.40
2019-02-16T21:45:07.847Z,22.40
2019-02-16T21:47:35.560Z,22.40
2019-02-16T21:50:02.655Z,22.40
2019-02-16T21:52:29.775Z,22.40
2019-02-16T21:54:56.974Z,22.40
2019-02-16T21:57:24.193Z,22.40
2019-02-16T21:59:51.260Z,22.40
2019-02-16T22:02:18.527Z,22.40
2019-02-16T22:04:45.740Z,22.40
2019-02-16T22:07:13.288Z,22.40
2019-02-16T22:09:40.400Z,22.40
2019-02-16T22:12:07.574Z,22.40
2019-02-16T22:14:34.705Z,22.40
2019-02-16T22:17:02.010Z,22.40
2019-02-16T22:19:29.114Z,22.40
2019-02-16T22:21:56.382Z,22.40
2019-02-16T22:24:23.437Z,22.40
2019-02-16T22:26:50.625Z,22.40
2019-02-16T22:29:17.712Z,22.40
2019-02-16T22:31:44.923Z,22.40
2019-02-16T22:34:12.038Z,22.40
2019-02-16T22:36:39.276Z,22.40
2019-02-16T22:39:06.398Z,22.40
2019-02-16T22:41:33.491Z,22.40
2019-02-16T22:44:02.339Z,22.40
2019-02-16T22:46:29.682Z,22.40
2019-02-16T22:48:56.814Z,22.40
2019-02-16T22:51:23.980Z,22.40
2019-02-16T22:53:51.266Z,22.40
2019-02-16T22:56:18.446Z,22.40
2019-02-16T22:58:45.670Z,22.40
2019-02-16T23:01:12.818Z,22.40
2019-02-16T23:03:39.875Z,22.40
2019-02-16T23:06:07.116Z,22.40
2019-02-16T23:08:34.217Z,22.40
2019-02-16T23:11:01.447Z,22.40
2019-02-16T23:13:28.502Z,22.40
2019-02-16T23:15:55.555Z,22.40
2019-02-16T23:18:22.672Z,22.40
2019-02-16T23:20:49.783Z,22.40
2019-02-16T23:23:17.035Z,22.40
2019-02-16T23:25:44.118Z,22.40
2019-02-16T23:28:11.204Z,22.40
2019-02-16T23:30:38.275Z,22.40
2019-02-16T23:33:05.369Z,22.40
2019-02-16T23:35:32.433Z,22.40
2019-02-16T23:37:59.533Z,22.40
2019-02-16T23:40:26.606Z,22.40
2019-02-16T23:42:53.698Z,22.40
2019-02-16T23:45:20.795Z,22.40
2019-02-16T23:47:47.900Z,22.40
2019-02-16T23:50:14.961Z,22.40
2019-02-16T23:52:42.053Z,22.40
2019-02-16T23:55:09.114Z,22.40
2019-02-16T23:57:36.321Z,22.40
